Terminal Aerodrome Forecast
Issued by NWS Wilmington, NC

Home | Current Version | Previous Version | Text Only | Print | Product List | Glossary On
Versions: 1 2 3 4 5 6 7 8 9 10 11 12 13 14 15 16 17 18 19 20 21 22
000
FTUS42 KILM 231732
TAFFLO
TAF
KFLO 231732Z 2318/2418 21008KT P6SM -SHRA SCT009 OVC015
      TEMPO 2320/2324 2SM TSRA OVC009CB
     FM240000 22007KT P6SM VCSH OVC015 WS020/18040KT
      TEMPO 2400/2403 2SM TSRA OVC005CB
     FM240500 23006KT 3SM SHRA BR VCTS OVC008CB
     FM240800 23004KT 3SM SHRA BR VCTS OVC002CB
     FM241600 18009KT P6SM -SHRA VCTS OVC040CB=

USA.gov is the U.S. government's official web portal to all federal, state and local government web resources and services.